createdAt,value
2019-02-10T00:00:23.181Z,994.74
2019-02-10T00:01:23.128Z,994.77
2019-02-10T00:02:23.101Z,994.75
2019-02-10T00:03:23.023Z,994.69
2019-02-10T00:04:22.971Z,994.68
2019-02-10T00:05:22.920Z,994.61
2019-02-10T00:06:24.693Z,994.58
2019-02-10T00:07:22.855Z,994.61
2019-02-10T00:08:22.756Z,994.55
2019-02-10T00:09:22.701Z,994.58
2019-02-10T00:10:22.646Z,994.57
2019-02-10T00:11:22.593Z,994.50
2019-02-10T00:12:22.571Z,994.55
2019-02-10T00:13:22.505Z,994.54
2019-02-10T00:14:22.430Z,994.54
2019-02-10T00:15:22.382Z,994.48
2019-02-10T00:16:22.326Z,994.49
2019-02-10T00:17:22.294Z,994.47
2019-02-10T00:18:22.218Z,994.48
2019-02-10T00:19:22.155Z,994.48
2019-02-10T00:20:22.109Z,994.47
2019-02-10T00:21:22.061Z,994.44
2019-02-10T00:22:22.021Z,994.40
2019-02-10T00:23:21.951Z,994.38
2019-02-10T00:24:21.899Z,994.32
2019-02-10T00:25:21.862Z,994.29
2019-02-10T00:26:21.786Z,994.25
2019-02-10T00:27:21.756Z,994.25
2019-02-10T00:28:21.683Z,994.20
2019-02-10T00:29:21.627Z,994.16
2019-02-10T00:30:21.565Z,994.13
2019-02-10T00:31:21.515Z,994.12
2019-02-10T00:32:21.496Z,994.11
2019-02-10T00:33:21.418Z,994.08
2019-02-10T00:34:21.359Z,994.08
2019-02-10T00:35:21.317Z,994.00
2019-02-10T00:36:21.269Z,994.03
2019-02-10T00:37:21.233Z,993.96
2019-02-10T00:38:21.145Z,993.99
2019-02-10T00:39:21.091Z,993.98
2019-02-10T00:40:21.024Z,993.91
2019-02-10T00:41:20.988Z,993.90
2019-02-10T00:42:20.961Z,993.90
2019-02-10T00:43:20.890Z,993.85
2019-02-10T00:44:20.823Z,993.84
2019-02-10T00:45:20.766Z,993.84
2019-02-10T00:46:20.705Z,993.84
2019-02-10T00:47:20.656Z,993.80
2019-02-10T00:48:20.648Z,993.81
2019-02-10T00:49:20.541Z,993.79
2019-02-10T00:50:20.494Z,993.78
2019-02-10T00:51:20.451Z,993.75
2019-02-10T00:52:20.386Z,993.75
2019-02-10T00:53:20.359Z,993.77
2019-02-10T00:54:20.279Z,993.67
2019-02-10T00:55:20.232Z,993.67
2019-02-10T00:56:20.185Z,993.68
2019-02-10T00:57:20.123Z,993.65
2019-02-10T00:58:20.103Z,993.63
2019-02-10T00:59:19.998Z,993.63
2019-02-10T01:00:19.958Z,993.61
2019-02-10T01:01:19.921Z,993.58
2019-02-10T01:02:19.852Z,993.61
2019-02-10T01:03:19.816Z,993.59
2019-02-10T01:04:19.740Z,993.55
2019-02-10T01:05:19.679Z,993.56
2019-02-10T01:06:19.623Z,993.59
2019-02-10T01:07:19.568Z,993.59
2019-02-10T01:08:19.548Z,993.57
2019-02-10T01:09:19.470Z,993.55
2019-02-10T01:10:19.413Z,993.53
2019-02-10T01:11:19.391Z,993.53
2019-02-10T01:12:19.308Z,993.49
2019-02-10T01:13:19.277Z,993.46
2019-02-10T01:14:19.195Z,993.45
2019-02-10T01:15:19.148Z,993.40
2019-02-10T01:16:19.085Z,993.41
2019-02-10T01:17:19.037Z,993.38
2019-02-10T01:18:19.006Z,993.33
2019-02-10T01:19:18.930Z,993.41
2019-02-10T01:20:18.898Z,993.39
2019-02-10T01:21:18.816Z,993.35
2019-02-10T01:22:18.775Z,993.37
2019-02-10T01:23:18.735Z,993.36
2019-02-10T01:24:18.665Z,993.33
2019-02-10T01:25:18.608Z,993.36
2019-02-10T01:26:18.544Z,993.30
2019-02-10T01:27:18.496Z,993.29
2019-02-10T01:28:18.473Z,993.29
2019-02-10T01:29:18.391Z,993.25
2019-02-10T01:30:18.327Z,993.25
2019-02-10T01:31:18.272Z,993.24
2019-02-10T01:32:18.235Z,993.24
2019-02-10T01:33:18.195Z,993.21
2019-02-10T01:34:18.119Z,993.24
2019-02-10T01:35:18.054Z,993.15
2019-02-10T01:36:18.009Z,993.20
2019-02-10T01:37:17.950Z,993.17
2019-02-10T01:38:17.957Z,993.14
2019-02-10T01:39:17.842Z,993.11
2019-02-10T01:40:17.795Z,993.06
2019-02-10T01:41:17.729Z,993.01
2019-02-10T01:42:17.680Z,992.95
2019-02-10T01:43:17.629Z,992.94
2019-02-10T01:44:17.606Z,992.90
2019-02-10T01:45:17.532Z,992.77
2019-02-10T01:46:17.461Z,992.79
2019-02-10T01:47:17.419Z,992.79
2019-02-10T01:48:17.358Z,992.80
2019-02-10T01:49:17.334Z,992.75
2019-02-10T01:50:17.246Z,992.74
2019-02-10T01:51:17.192Z,992.70
2019-02-10T01:52:17.147Z,992.68
2019-02-10T01:53:17.088Z,992.69
2019-02-10T01:54:17.102Z,992.65
2019-02-10T01:55:16.972Z,992.58
2019-02-10T01:56:16.927Z,992.57
2019-02-10T01:57:16.861Z,992.55
2019-02-10T01:58:16.817Z,992.57
2019-02-10T01:59:16.787Z,992.55
2019-02-10T02:00:16.703Z,992.52
2019-02-10T02:01:16.681Z,992.45
2019-02-10T02:02:16.602Z,992.45
2019-02-10T02:03:16.551Z,992.44
2019-02-10T02:04:16.517Z,992.46
2019-02-10T02:05:16.744Z,992.42
2019-02-10T02:06:16.383Z,992.41
2019-02-10T02:07:16.355Z,992.40
2019-02-10T02:08:16.276Z,992.35
2019-02-10T02:09:16.249Z,992.31
2019-02-10T02:10:16.170Z,992.32
2019-02-10T02:11:16.118Z,992.25
2019-02-10T02:12:16.059Z,992.20
2019-02-10T02:13:16.005Z,992.22
2019-02-10T02:14:15.980Z,992.20
2019-02-10T02:15:15.894Z,992.14
2019-02-10T02:16:15.838Z,992.11
2019-02-10T02:17:15.796Z,992.08
2019-02-10T02:18:15.732Z,992.10
2019-02-10T02:19:15.738Z,992.08
2019-02-10T02:20:15.618Z,992.09
2019-02-10T02:21:15.572Z,992.06
2019-02-10T02:22:15.514Z,992.06
2019-02-10T02:23:15.459Z,992.03
2019-02-10T02:24:15.442Z,992.00
2019-02-10T02:25:15.354Z,991.95
2019-02-10T02:26:15.339Z,991.99
2019-02-10T02:27:15.238Z,991.97
2019-02-10T02:28:15.189Z,991.97
2019-02-10T02:29:15.135Z,991.91
2019-02-10T02:30:15.133Z,991.90
2019-02-10T02:31:15.069Z,991.91
2019-02-10T02:32:14.975Z,991.89
2019-02-10T02:33:14.919Z,991.86
2019-02-10T02:34:14.869Z,991.80
2019-02-10T02:35:14.830Z,991.78
2019-02-10T02:36:14.765Z,991.74
2019-02-10T02:37:14.699Z,991.71
2019-02-10T02:38:14.668Z,991.63
2019-02-10T02:39:14.632Z,991.66
2019-02-10T02:40:14.578Z,991.62
2019-02-10T02:41:14.492Z,991.52
2019-02-10T02:42:14.435Z,991.54
2019-02-10T02:43:14.393Z,991.51
2019-02-10T02:44:14.326Z,991.56
2019-02-10T02:45:14.298Z,991.56
2019-02-10T02:46:14.217Z,991.53
2019-02-10T02:47:14.160Z,991.51
2019-02-10T02:48:14.124Z,991.50
2019-02-10T02:49:14.060Z,991.42
2019-02-10T02:50:14.059Z,991.42
2019-02-10T02:51:13.980Z,991.36
2019-02-10T02:52:13.897Z,991.37
2019-02-10T02:53:13.844Z,991.33
2019-02-10T02:54:13.779Z,991.29
2019-02-10T02:55:13.757Z,991.23
2019-02-10T02:56:13.675Z,991.26
2019-02-10T02:57:13.622Z,991.18
2019-02-10T02:58:13.572Z,991.22
2019-02-10T02:59:13.512Z,991.18
2019-02-10T03:00:13.481Z,991.12
2019-02-10T03:01:13.418Z,991.19
2019-02-10T03:02:13.352Z,991.15
2019-02-10T03:03:13.292Z,991.16
2019-02-10T03:04:13.250Z,991.14
2019-02-10T03:05:13.234Z,991.13
2019-02-10T03:06:13.136Z,991.15
2019-02-10T03:07:18.154Z,991.12
2019-02-10T03:08:13.030Z,991.02
2019-02-10T03:09:12.984Z,991.06
2019-02-10T03:10:12.939Z,991.06
2019-02-10T03:11:12.869Z,991.07
2019-02-10T03:12:12.816Z,991.02
2019-02-10T03:13:12.757Z,991.02
2019-02-10T03:14:12.715Z,991.00
2019-02-10T03:15:12.672Z,990.93
2019-02-10T03:16:12.594Z,990.89
2019-02-10T03:17:12.562Z,990.94
2019-02-10T03:18:12.507Z,990.91
2019-02-10T03:19:12.432Z,990.85
2019-02-10T03:20:12.406Z,990.79
2019-02-10T03:21:12.325Z,990.75
2019-02-10T03:22:12.359Z,990.69
2019-02-10T03:23:12.212Z,990.67
2019-02-10T03:24:12.194Z,990.63
2019-02-10T03:25:12.107Z,990.64
2019-02-10T03:26:12.075Z,990.56
2019-02-10T03:27:11.987Z,990.55
2019-02-10T03:28:11.962Z,990.58
2019-02-10T03:29:11.893Z,990.53
2019-02-10T03:30:11.862Z,990.55
2019-02-10T03:31:11.841Z,990.47
2019-02-10T03:32:11.728Z,990.43
2019-02-10T03:33:11.692Z,990.44
2019-02-10T03:34:11.625Z,990.41
2019-02-10T03:35:11.571Z,990.33
2019-02-10T03:36:11.547Z,990.36
2019-02-10T03:37:11.459Z,990.28
2019-02-10T03:38:11.408Z,990.25
2019-02-10T03:39:11.351Z,990.10
2019-02-10T03:40:11.295Z,990.07
2019-02-10T03:41:11.264Z,990.07
2019-02-10T03:42:11.199Z,990.10
2019-02-10T03:43:11.147Z,989.99
2019-02-10T03:44:11.083Z,989.93
2019-02-10T03:45:11.050Z,989.89
2019-02-10T03:46:10.990Z,989.90
2019-02-10T03:47:10.938Z,989.91
2019-02-10T03:48:10.863Z,989.90
2019-02-10T03:49:10.801Z,989.86
2019-02-10T03:50:10.758Z,989.85
2019-02-10T03:51:10.758Z,989.78
2019-02-10T03:52:10.663Z,989.74
2019-02-10T03:53:10.593Z,989.76
2019-02-10T03:54:10.533Z,989.74
2019-02-10T03:55:10.479Z,989.75
2019-02-10T03:56:10.456Z,989.73
2019-02-10T03:57:10.384Z,989.71
2019-02-10T03:58:10.333Z,989.68
2019-02-10T03:59:10.278Z,989.61
2019-02-10T04:00:10.210Z,989.57
2019-02-10T04:01:10.176Z,989.52
2019-02-10T04:02:10.101Z,989.45
2019-02-10T04:03:10.056Z,989.40
2019-02-10T04:04:09.986Z,989.48
2019-02-10T04:05:09.942Z,989.52
2019-02-10T04:06:09.909Z,989.50
2019-02-10T04:07:09.823Z,989.57
2019-02-10T04:08:09.796Z,989.55
2019-02-10T04:09:09.721Z,989.50
2019-02-10T04:10:09.662Z,989.48
2019-02-10T04:11:09.632Z,989.49
2019-02-10T04:12:09.555Z,989.48
2019-02-10T04:13:09.501Z,989.43
2019-02-10T04:14:09.470Z,989.41
2019-02-10T04:15:09.396Z,989.40
2019-02-10T04:16:09.367Z,989.42
2019-02-10T04:17:09.331Z,989.35
2019-02-10T04:18:09.227Z,989.35
2019-02-10T04:19:09.197Z,989.36
2019-02-10T04:20:09.123Z,989.34
2019-02-10T04:21:09.104Z,989.38
2019-02-10T04:22:09.044Z,989.27
2019-02-10T04:23:08.959Z,989.26
2019-02-10T04:24:08.913Z,989.32
2019-02-10T04:25:08.866Z,989.26
2019-02-10T04:26:08.796Z,989.17
2019-02-10T04:27:08.763Z,989.18
2019-02-10T04:28:08.692Z,989.10
2019-02-10T04:29:08.632Z,989.05
2019-02-10T04:30:09.304Z,988.98
2019-02-10T04:31:08.516Z,988.93
2019-02-10T04:32:08.491Z,988.90
2019-02-10T04:33:08.437Z,988.80
2019-02-10T04:34:08.348Z,988.75
2019-02-10T04:35:08.304Z,988.69
2019-02-10T04:36:08.271Z,988.67
2019-02-10T04:37:08.216Z,988.61
2019-02-10T04:38:08.151Z,988.58
2019-02-10T04:39:08.095Z,988.52
2019-02-10T04:40:08.036Z,988.47
2019-02-10T04:41:07.977Z,988.48
2019-02-10T04:42:07.944Z,988.44
2019-02-10T04:43:07.877Z,988.38
2019-02-10T04:44:07.807Z,988.31
2019-02-10T04:45:07.792Z,988.33
2019-02-10T04:46:07.717Z,988.31
2019-02-10T04:47:07.676Z,988.30
2019-02-10T04:48:07.593Z,988.30
2019-02-10T04:49:07.548Z,988.24
2019-02-10T04:50:07.481Z,988.23
2019-02-10T04:51:07.430Z,988.25
2019-02-10T04:52:07.395Z,988.22
2019-02-10T04:53:07.324Z,988.17
2019-02-10T04:54:07.256Z,988.15
2019-02-10T04:55:07.209Z,988.16
2019-02-10T04:56:07.149Z,988.15
2019-02-10T04:57:07.121Z,988.07
2019-02-10T04:58:07.038Z,988.07
2019-02-10T04:59:06.990Z,988.02
2019-02-10T05:00:06.934Z,987.98
2019-02-10T05:01:06.877Z,987.95
2019-02-10T05:02:06.871Z,987.95
2019-02-10T05:03:06.770Z,987.94
2019-02-10T05:04:06.710Z,987.90
2019-02-10T05:05:06.672Z,987.88
2019-02-10T05:06:06.627Z,987.85
2019-02-10T05:07:06.545Z,987.84
2019-02-10T05:08:06.518Z,987.81
2019-02-10T05:09:06.472Z,987.79
2019-02-10T05:10:06.380Z,987.78
2019-02-10T05:11:06.327Z,987.77
2019-02-10T05:12:06.278Z,987.73
2019-02-10T05:13:06.248Z,987.67
2019-02-10T05:14:06.176Z,987.62
2019-02-10T05:15:06.127Z,987.55
2019-02-10T05:16:06.054Z,987.54
2019-02-10T05:17:06.005Z,987.58
2019-02-10T05:18:05.964Z,987.51
2019-02-10T05:19:05.886Z,987.47
2019-02-10T05:20:05.831Z,987.49
2019-02-10T05:21:05.769Z,987.42
2019-02-10T05:22:05.722Z,987.43
2019-02-10T05:23:05.701Z,987.27
2019-02-10T05:24:05.611Z,987.23
2019-02-10T05:25:05.555Z,987.21
2019-02-10T05:26:05.505Z,987.28
2019-02-10T05:27:05.450Z,987.20
2019-02-10T05:28:05.416Z,987.18
2019-02-10T05:29:05.342Z,987.12
2019-02-10T05:30:05.287Z,987.11
2019-02-10T05:31:05.224Z,987.02
2019-02-10T05:32:05.169Z,987.07
2019-02-10T05:33:05.136Z,986.91
2019-02-10T05:34:05.065Z,986.94
2019-02-10T05:35:05.011Z,986.91
2019-02-10T05:36:04.958Z,986.85
2019-02-10T05:37:04.893Z,986.90
2019-02-10T05:38:04.889Z,986.88
2019-02-10T05:39:04.787Z,986.83
2019-02-10T05:40:04.731Z,986.75
2019-02-10T05:41:04.674Z,986.75
2019-02-10T05:42:04.616Z,986.72
2019-02-10T05:43:04.581Z,986.68
2019-02-10T05:44:04.534Z,986.64
2019-02-10T05:45:04.468Z,986.52
2019-02-10T05:46:04.403Z,986.54
2019-02-10T05:47:04.341Z,986.52
2019-02-10T05:48:04.317Z,986.53
2019-02-10T05:49:04.259Z,986.49
2019-02-10T05:50:04.181Z,986.45
2019-02-10T05:51:04.139Z,986.42
2019-02-10T05:52:04.075Z,986.45
2019-02-10T05:53:04.021Z,986.37
2019-02-10T05:54:03.981Z,986.28
2019-02-10T05:55:03.904Z,986.20
2019-02-10T05:56:03.845Z,986.21
2019-02-10T05:57:03.792Z,986.11
2019-02-10T05:58:03.742Z,986.08
2019-02-10T05:59:03.710Z,986.09
2019-02-10T06:00:03.652Z,986.03
2019-02-10T06:01:03.573Z,985.99
2019-02-10T06:02:03.518Z,985.97
2019-02-10T06:03:03.466Z,985.93
2019-02-10T06:04:03.436Z,985.88
2019-02-10T06:05:03.351Z,985.80
2019-02-10T06:06:03.303Z,985.82
2019-02-10T06:07:03.248Z,985.73
2019-02-10T06:08:03.193Z,985.73
2019-02-10T06:09:03.165Z,985.67
2019-02-10T06:10:03.081Z,985.67
2019-02-10T06:11:03.019Z,985.67
2019-02-10T06:12:02.971Z,985.52
2019-02-10T06:13:02.920Z,985.50
2019-02-10T06:14:02.883Z,985.42
2019-02-10T06:15:02.799Z,985.38
2019-02-10T06:16:02.745Z,985.33
2019-02-10T06:17:02.686Z,985.27
2019-02-10T06:18:02.637Z,985.24
2019-02-10T06:19:02.601Z,985.25
2019-02-10T06:20:02.526Z,985.23
2019-02-10T06:21:02.469Z,985.16
2019-02-10T06:22:02.414Z,985.13
2019-02-10T06:23:02.365Z,985.07
2019-02-10T06:24:02.340Z,985.00
2019-02-10T06:25:02.238Z,984.89
2019-02-10T06:26:02.187Z,984.89
2019-02-10T06:27:02.146Z,984.85
2019-02-10T06:28:02.085Z,984.73
2019-02-10T06:29:02.058Z,984.67
2019-02-10T06:30:01.974Z,984.69
2019-02-10T06:31:01.922Z,984.61
2019-02-10T06:32:01.872Z,984.50
2019-02-10T06:33:01.812Z,984.51
2019-02-10T06:34:01.808Z,984.47
2019-02-10T06:35:01.695Z,984.45
2019-02-10T06:36:01.650Z,984.44
2019-02-10T06:37:01.594Z,984.37
2019-02-10T06:38:01.531Z,984.32
2019-02-10T06:39:01.484Z,984.27
2019-02-10T06:40:01.454Z,984.20
2019-02-10T06:41:01.370Z,984.20
2019-02-10T06:42:01.309Z,984.13
2019-02-10T06:43:01.257Z,984.04
2019-02-10T06:44:01.202Z,984.01
2019-02-10T06:45:01.183Z,984.00
2019-02-10T06:46:01.098Z,983.98
2019-02-10T06:47:01.036Z,983.91
2019-02-10T06:48:00.981Z,983.92
2019-02-10T06:49:00.933Z,983.82
2019-02-10T06:50:00.899Z,983.84
2019-02-10T06:51:00.820Z,983.84
2019-02-10T06:52:00.767Z,983.77
2019-02-10T06:53:00.705Z,983.78
2019-02-10T06:54:00.649Z,983.71
2019-02-10T06:55:00.622Z,983.73
2019-02-10T06:56:00.586Z,983.71
2019-02-10T06:57:00.484Z,983.70
2019-02-10T06:58:00.431Z,983.65
2019-02-10T06:59:00.377Z,983.57
2019-02-10T07:00:00.347Z,983.46
2019-02-10T07:01:00.269Z,983.54
2019-02-10T07:02:00.216Z,983.53
2019-02-10T07:03:00.155Z,983.51
2019-02-10T07:04:00.126Z,983.51
2019-02-10T07:05:00.072Z,983.48
2019-02-10T07:05:59.989Z,983.46
2019-02-10T07:06:59.938Z,983.39
2019-02-10T07:07:59.874Z,983.35
2019-02-10T07:08:59.827Z,983.32
2019-02-10T07:09:59.798Z,983.40
2019-02-10T07:10:59.716Z,983.34
2019-02-10T07:11:59.671Z,983.31
2019-02-10T07:12:59.614Z,983.23
2019-02-10T07:13:59.552Z,983.22
2019-02-10T07:14:59.517Z,983.17
2019-02-10T07:15:59.459Z,983.18
2019-02-10T07:16:59.383Z,983.17
2019-02-10T07:17:59.324Z,983.14
2019-02-10T07:18:59.276Z,983.14
2019-02-10T07:19:59.210Z,983.18
2019-02-10T07:20:59.189Z,983.17
2019-02-10T07:21:59.107Z,983.13
2019-02-10T07:22:59.047Z,983.15
2019-02-10T07:23:58.999Z,983.12
2019-02-10T07:24:58.935Z,983.08
2019-02-10T07:25:58.912Z,983.03
2019-02-10T07:26:58.860Z,983.02
2019-02-10T07:27:58.789Z,983.02
2019-02-10T07:28:58.726Z,983.02
2019-02-10T07:29:58.663Z,982.96
2019-02-10T07:30:58.628Z,983.00
2019-02-10T07:31:58.546Z,982.95
2019-02-10T07:32:58.505Z,982.91
2019-02-10T07:33:58.676Z,982.91
2019-02-10T07:34:58.396Z,982.91
2019-02-10T07:35:58.366Z,982.83
2019-02-10T07:36:58.282Z,982.75
2019-02-10T07:37:58.231Z,982.75
2019-02-10T07:38:58.164Z,982.74
2019-02-10T07:39:58.112Z,982.71
2019-02-10T07:40:58.085Z,982.69
2019-02-10T07:41:58.002Z,982.63
2019-02-10T07:42:57.945Z,982.65
2019-02-10T07:43:57.882Z,982.68
2019-02-10T07:44:57.836Z,982.64
2019-02-10T07:45:57.805Z,982.58
2019-02-10T07:46:57.726Z,982.52
2019-02-10T07:47:57.678Z,982.43
2019-02-10T07:48:57.622Z,982.47
2019-02-10T07:49:57.564Z,982.51
2019-02-10T07:50:57.520Z,982.52
2019-02-10T07:51:57.456Z,982.45
2019-02-10T07:52:57.464Z,982.39
2019-02-10T07:53:57.352Z,982.38
2019-02-10T07:54:57.278Z,982.25
2019-02-10T07:55:57.258Z,982.26
2019-02-10T07:56:57.186Z,982.22
2019-02-10T07:57:57.111Z,982.22
2019-02-10T07:58:57.068Z,982.11
2019-02-10T07:59:57.012Z,982.09
2019-02-10T08:00:56.973Z,982.04
2019-02-10T08:01:56.898Z,982.02
2019-02-10T08:02:56.839Z,981.99
2019-02-10T08:03:56.784Z,982.04
2019-02-10T08:04:56.734Z,982.05
2019-02-10T08:05:56.696Z,981.99
2019-02-10T08:06:56.644Z,981.90
2019-02-10T08:07:56.572Z,981.88
2019-02-10T08:08:56.514Z,981.91
2019-02-10T08:09:56.453Z,981.80
2019-02-10T08:10:56.405Z,981.73
2019-02-10T08:11:56.367Z,981.74
2019-02-10T08:12:56.292Z,981.72
2019-02-10T08:13:56.246Z,981.69
2019-02-10T08:14:56.179Z,981.61
2019-02-10T08:15:56.125Z,981.57
2019-02-10T08:16:56.098Z,981.57
2019-02-10T08:17:56.024Z,981.53
2019-02-10T08:18:55.963Z,981.52
2019-02-10T08:19:55.906Z,981.48
2019-02-10T08:20:55.850Z,981.38
2019-02-10T08:21:55.813Z,981.32
2019-02-10T08:22:55.746Z,981.28
2019-02-10T08:23:55.699Z,981.20
2019-02-10T08:24:55.627Z,981.15
2019-02-10T08:25:55.575Z,981.10
2019-02-10T08:26:55.556Z,981.06
2019-02-10T08:27:55.465Z,981.08
2019-02-10T08:28:55.407Z,980.95
2019-02-10T08:29:55.355Z,980.91
2019-02-10T08:30:55.303Z,980.90
2019-02-10T08:31:55.267Z,980.94
2019-02-10T08:32:55.196Z,980.89
2019-02-10T08:33:55.135Z,980.83
2019-02-10T08:34:55.082Z,980.86
2019-02-10T08:35:55.040Z,980.85
2019-02-10T08:36:55.002Z,980.83
2019-02-10T08:37:54.914Z,980.77
2019-02-10T08:38:54.877Z,980.80
2019-02-10T08:39:54.809Z,980.77
2019-02-10T08:40:54.756Z,980.78
2019-02-10T08:41:54.693Z,980.69
2019-02-10T08:42:54.672Z,980.64
2019-02-10T08:43:54.587Z,980.60
2019-02-10T08:44:54.534Z,980.54
2019-02-10T08:45:54.503Z,980.58
2019-02-10T08:46:54.421Z,980.57
2019-02-10T08:47:54.408Z,980.54
2019-02-10T08:48:54.330Z,980.47
2019-02-10T08:49:54.258Z,980.45
2019-02-10T08:50:54.199Z,980.39
2019-02-10T08:51:54.152Z,980.39
2019-02-10T08:52:54.137Z,980.38
2019-02-10T08:53:54.046Z,980.33
2019-02-10T08:54:54.004Z,980.30
2019-02-10T08:55:53.936Z,980.25
2019-02-10T08:56:53.877Z,980.22
2019-02-10T08:57:53.846Z,980.20
2019-02-10T08:58:53.773Z,980.20
2019-02-10T08:59:53.722Z,980.23
2019-02-10T09:00:53.681Z,980.23
2019-02-10T09:01:54.271Z,980.25
2019-02-10T09:02:53.577Z,980.26
2019-02-10T09:03:53.504Z,980.23
2019-02-10T09:04:53.441Z,980.22
2019-02-10T09:05:53.380Z,980.17
2019-02-10T09:06:53.331Z,980.14
2019-02-10T09:07:53.302Z,980.06
2019-02-10T09:08:53.224Z,980.01
2019-02-10T09:09:53.160Z,979.96
2019-02-10T09:10:53.115Z,979.89
2019-02-10T09:11:53.058Z,979.82
2019-02-10T09:12:54.784Z,979.85
2019-02-10T09:13:52.949Z,979.87
2019-02-10T09:14:52.889Z,979.85
2019-02-10T09:15:52.839Z,979.85
2019-02-10T09:16:52.784Z,979.82
2019-02-10T09:17:52.762Z,979.82
2019-02-10T09:18:52.689Z,979.88
2019-02-10T09:19:52.620Z,979.89
2019-02-10T09:20:52.566Z,979.81
2019-02-10T09:21:52.510Z,979.82
2019-02-10T09:22:52.486Z,979.80
2019-02-10T09:23:52.407Z,979.74
2019-02-10T09:24:52.351Z,979.69
2019-02-10T09:25:52.289Z,979.69
2019-02-10T09:26:52.263Z,979.68
2019-02-10T09:27:52.209Z,979.65
2019-02-10T09:28:52.159Z,979.69
2019-02-10T09:29:52.073Z,979.64
2019-02-10T09:30:52.021Z,979.59
2019-02-10T09:31:51.969Z,979.58
2019-02-10T09:32:51.947Z,979.56
2019-02-10T09:33:51.852Z,979.53
2019-02-10T09:34:51.797Z,979.49
2019-02-10T09:35:51.750Z,979.55
2019-02-10T09:36:51.690Z,979.52
2019-02-10T09:37:51.637Z,979.53
2019-02-10T09:38:51.608Z,979.49
2019-02-10T09:39:51.530Z,979.56
2019-02-10T09:40:51.469Z,979.55
2019-02-10T09:41:51.423Z,979.55
2019-02-10T09:42:51.360Z,979.47
2019-02-10T09:43:51.345Z,979.44
2019-02-10T09:44:51.280Z,979.44
2019-02-10T09:45:51.200Z,979.44
2019-02-10T09:46:51.149Z,979.47
2019-02-10T09:47:51.101Z,979.44
2019-02-10T09:48:51.063Z,979.39
2019-02-10T09:49:51.000Z,979.31
2019-02-10T09:50:50.937Z,979.24
2019-02-10T09:51:50.887Z,979.17
2019-02-10T09:52:50.834Z,979.23
2019-02-10T09:53:50.790Z,979.23
2019-02-10T09:54:50.719Z,979.26
2019-02-10T09:55:50.666Z,979.23
2019-02-10T09:56:50.614Z,979.25
2019-02-10T09:57:50.552Z,979.30
2019-02-10T09:58:50.525Z,979.31
2019-02-10T09:59:50.442Z,979.31
2019-02-10T10:00:50.402Z,979.24
2019-02-10T10:01:50.337Z,979.19
2019-02-10T10:02:50.289Z,979.21
2019-02-10T10:03:50.280Z,979.16
2019-02-10T10:04:50.169Z,979.16
2019-02-10T10:05:50.125Z,979.26
2019-02-10T10:06:50.073Z,979.20
2019-02-10T10:07:50.013Z,979.18
2019-02-10T10:08:50.018Z,979.16
2019-02-10T10:09:49.926Z,979.22
2019-02-10T10:10:49.846Z,979.26
2019-02-10T10:11:49.798Z,979.27
2019-02-10T10:12:49.742Z,979.28
2019-02-10T10:13:49.722Z,979.20
2019-02-10T10:14:49.664Z,979.17
2019-02-10T10:15:49.580Z,979.16
2019-02-10T10:16:49.530Z,979.08
2019-02-10T10:17:49.469Z,979.11
2019-02-10T10:18:49.418Z,979.07
2019-02-10T10:19:49.388Z,979.03
2019-02-10T10:20:49.306Z,979.05
2019-02-10T10:21:49.256Z,979.06
2019-02-10T10:22:49.225Z,979.04
2019-02-10T10:23:49.180Z,979.04
2019-02-10T10:24:50.484Z,979.05
2019-02-10T10:25:49.057Z,979.02
2019-02-10T10:26:48.991Z,979.04
2019-02-10T10:27:48.939Z,979.02
2019-02-10T10:28:48.893Z,979.00
2019-02-10T10:29:48.856Z,979.00
2019-02-10T10:30:48.770Z,978.93
2019-02-10T10:31:48.725Z,978.87
2019-02-10T10:32:48.665Z,978.84
2019-02-10T10:33:48.608Z,978.83
2019-02-10T10:34:48.589Z,978.78
2019-02-10T10:35:48.499Z,978.76
2019-02-10T10:36:48.456Z,978.83
2019-02-10T10:37:48.389Z,978.83
2019-02-10T10:38:48.349Z,978.78
2019-02-10T10:39:48.315Z,978.78
2019-02-10T10:40:48.243Z,978.75
2019-02-10T10:41:48.185Z,978.77
2019-02-10T10:42:48.147Z,978.75
2019-02-10T10:43:48.073Z,978.73
2019-02-10T10:44:48.059Z,978.77
2019-02-10T10:45:47.968Z,978.72
2019-02-10T10:46:47.926Z,978.80
2019-02-10T10:47:47.871Z,978.75
2019-02-10T10:48:47.824Z,978.73
2019-02-10T10:49:47.778Z,978.75
2019-02-10T10:50:47.723Z,978.79
2019-02-10T10:51:47.644Z,978.78
2019-02-10T10:52:47.604Z,978.78
2019-02-10T10:53:47.548Z,978.76
2019-02-10T10:54:47.508Z,978.78
2019-02-10T10:55:47.437Z,978.80
2019-02-10T10:56:47.382Z,978.87
2019-02-10T10:57:47.328Z,978.73
2019-02-10T10:58:47.272Z,978.79
2019-02-10T10:59:47.255Z,978.76
2019-02-10T11:00:47.184Z,978.73
2019-02-10T11:01:47.120Z,978.74
2019-02-10T11:02:47.061Z,978.74
2019-02-10T11:03:47.066Z,978.67
2019-02-10T11:04:46.980Z,978.69
2019-02-10T11:05:46.918Z,978.70
2019-02-10T11:06:46.848Z,978.62
2019-02-10T11:07:46.813Z,978.63
2019-02-10T11:08:46.734Z,978.59
2019-02-10T11:09:46.701Z,978.64
2019-02-10T11:10:46.660Z,978.68
2019-02-10T11:11:46.583Z,978.62
2019-02-10T11:12:46.528Z,978.54
2019-02-10T11:13:46.498Z,978.43
2019-02-10T11:14:46.428Z,978.48
2019-02-10T11:15:46.406Z,978.50
2019-02-10T11:16:46.311Z,978.41
2019-02-10T11:17:46.275Z,978.47
2019-02-10T11:18:46.207Z,978.53
2019-02-10T11:19:46.155Z,978.45
2019-02-10T11:20:46.154Z,978.32
2019-02-10T11:21:46.044Z,978.34
2019-02-10T11:22:46.004Z,978.32
2019-02-10T11:23:45.943Z,978.34
2019-02-10T11:24:45.924Z,978.27
2019-02-10T11:25:45.852Z,978.29
2019-02-10T11:26:45.788Z,978.16
2019-02-10T11:27:45.723Z,978.23
2019-02-10T11:28:45.676Z,978.27
2019-02-10T11:29:45.614Z,978.25
2019-02-10T11:30:45.620Z,978.10
2019-02-10T11:31:45.529Z,978.13
2019-02-10T11:32:45.459Z,978.17
2019-02-10T11:33:45.410Z,978.08
2019-02-10T11:34:46.310Z,978.08
2019-02-10T11:35:45.323Z,978.02
2019-02-10T11:36:45.245Z,978.03
2019-02-10T11:37:45.191Z,977.92
2019-02-10T11:38:45.135Z,977.99
2019-02-10T11:39:45.078Z,977.97
2019-02-10T11:40:45.065Z,977.91
2019-02-10T11:41:44.979Z,977.86
2019-02-10T11:42:44.925Z,977.81
2019-02-10T11:43:44.861Z,977.81
2019-02-10T11:44:44.830Z,977.81
2019-02-10T11:45:44.790Z,977.80
2019-02-10T11:46:44.716Z,977.80
2019-02-10T11:47:44.673Z,977.77
2019-02-10T11:48:44.602Z,977.74
2019-02-10T11:49:44.554Z,977.79
2019-02-10T11:50:44.536Z,977.78
2019-02-10T11:51:44.438Z,977.73
2019-02-10T11:52:44.385Z,977.72
2019-02-10T11:53:44.330Z,977.71
2019-02-10T11:54:44.290Z,977.69
2019-02-10T11:55:44.251Z,977.70
2019-02-10T11:56:44.189Z,977.71
2019-02-10T11:57:44.122Z,977.67
2019-02-10T11:58:44.061Z,977.65
2019-02-10T11:59:44.010Z,977.64
2019-02-10T12:00:43.978Z,977.62
2019-02-10T12:01:43.904Z,977.65
2019-02-10T12:02:43.851Z,977.68
2019-02-10T12:03:43.803Z,977.68
2019-02-10T12:04:43.741Z,977.64
2019-02-10T12:05:43.715Z,977.59
2019-02-10T12:06:43.648Z,977.57
2019-02-10T12:07:43.589Z,977.55
2019-02-10T12:08:43.527Z,977.48
2019-02-10T12:09:51.362Z,977.40
2019-02-10T12:10:43.457Z,977.45
2019-02-10T12:11:43.373Z,977.42
2019-02-10T12:12:43.333Z,977.40
2019-02-10T12:13:43.265Z,977.36
2019-02-10T12:14:43.207Z,977.35
2019-02-10T12:15:43.177Z,977.36
2019-02-10T12:16:43.100Z,977.28
2019-02-10T12:17:43.069Z,977.32
2019-02-10T12:18:43.001Z,977.18
2019-02-10T12:19:42.950Z,977.26
2019-02-10T12:20:42.904Z,977.21
2019-02-10T12:21:42.855Z,977.18
2019-02-10T12:22:49.859Z,977.15
2019-02-10T12:23:42.733Z,977.17
2019-02-10T12:24:42.671Z,977.15
2019-02-10T12:25:42.629Z,977.16
2019-02-10T12:26:42.591Z,977.14
2019-02-10T12:27:42.513Z,977.15